sensor_id;sensor_type;location;lat;lon;timestamp;pressure;altitude;pressure_sealevel;temperature;humidity
51496;BME280;37572;52.094;4.870;2023-06-10T00:00:39;101536.81;;;24.30;43.72
51496;BME280;37572;52.094;4.870;2023-06-10T00:03:06;101533.25;;;24.30;43.84
51496;BME280;37572;52.094;4.870;2023-06-10T00:05:32;101541.16;;;24.31;43.85
51496;BME280;37572;52.094;4.870;2023-06-10T00:07:57;101542.03;;;24.32;43.53
51496;BME280;37572;52.094;4.870;2023-06-10T00:10:24;101534.91;;;24.31;43.18
51496;BME280;37572;52.094;4.870;2023-06-10T00:12:49;101541.78;;;24.33;43.52
51496;BME280;37572;52.094;4.870;2023-06-10T00:15:16;101542.84;;;24.32;43.44
51496;BME280;37572;52.094;4.870;2023-06-10T00:17:42;101544.97;;;24.30;43.39
51496;BME280;37572;52.094;4.870;2023-06-10T00:20:09;101543.28;;;24.29;43.11
51496;BME280;37572;52.094;4.870;2023-06-10T00:22:37;101548.72;;;24.29;43.28
51496;BME280;37572;52.094;4.870;2023-06-10T00:25:03;101547.09;;;24.28;43.31
51496;BME280;37572;52.094;4.870;2023-06-10T00:27:29;101550.28;;;24.25;43.27
51496;BME280;37572;52.094;4.870;2023-06-10T00:30:00;101545.28;;;24.22;42.87
51496;BME280;37572;52.094;4.870;2023-06-10T00:32:26;101543.59;;;24.21;42.96
51496;BME280;37572;52.094;4.870;2023-06-10T00:34:51;101542.78;;;24.20;42.96
51496;BME280;37572;52.094;4.870;2023-06-10T00:37:16;101543.84;;;24.19;42.82
51496;BME280;37572;52.094;4.870;2023-06-10T00:39:41;101555.22;;;24.16;43.15
51496;BME280;37572;52.094;4.870;2023-06-10T00:42:07;101549.38;;;24.13;42.69
51496;BME280;37572;52.094;4.870;2023-06-10T00:44:33;101554.44;;;24.09;42.87
51496;BME280;37572;52.094;4.870;2023-06-10T00:46:58;101545.31;;;24.04;42.94
51496;BME280;37572;52.094;4.870;2023-06-10T00:49:24;101549.53;;;23.99;43.33
51496;BME280;37572;52.094;4.870;2023-06-10T00:51:50;101542.91;;;23.95;43.32
51496;BME280;37572;52.094;4.870;2023-06-10T00:54:17;101541.69;;;23.91;42.85
51496;BME280;37572;52.094;4.870;2023-06-10T00:56:43;101538.59;;;23.88;43.10
51496;BME280;37572;52.094;4.870;2023-06-10T00:59:08;101546.97;;;23.86;43.50
51496;BME280;37572;52.094;4.870;2023-06-10T01:01:33;101544.69;;;23.83;43.30
51496;BME280;37572;52.094;4.870;2023-06-10T01:03:59;101539.09;;;23.78;43.58
51496;BME280;37572;52.094;4.870;2023-06-10T01:06:39;101540.63;;;23.74;43.14
51496;BME280;37572;52.094;4.870;2023-06-10T01:11:52;101541.72;;;23.66;43.28
51496;BME280;37572;52.094;4.870;2023-06-10T01:14:21;101544.06;;;23.62;43.59
51496;BME280;37572;52.094;4.870;2023-06-10T01:16:47;101540.16;;;23.58;43.62
51496;BME280;37572;52.094;4.870;2023-06-10T01:19:13;101548.75;;;23.55;43.69
51496;BME280;37572;52.094;4.870;2023-06-10T01:21:39;101542.31;;;23.50;43.49
51496;BME280;37572;52.094;4.870;2023-06-10T01:24:05;101549.50;;;23.44;43.59
51496;BME280;37572;52.094;4.870;2023-06-10T01:26:36;101548.28;;;23.40;43.26
51496;BME280;37572;52.094;4.870;2023-06-10T01:29:14;101553.78;;;23.33;43.70
51496;BME280;37572;52.094;4.870;2023-06-10T01:32:01;101556.09;;;23.30;43.56
51496;BME280;37572;52.094;4.870;2023-06-10T01:34:31;101546.16;;;23.23;43.54
51496;BME280;37572;52.094;4.870;2023-06-10T01:36:57;101548.69;;;23.18;43.25
51496;BME280;37572;52.094;4.870;2023-06-10T01:39:24;101547.69;;;23.13;43.27
51496;BME280;37572;52.094;4.870;2023-06-10T01:41:51;101551.06;;;23.08;43.39
51496;BME280;37572;52.094;4.870;2023-06-10T01:44:22;101550.63;;;23.04;43.81
51496;BME280;37572;52.094;4.870;2023-06-10T01:46:48;101552.97;;;23.01;43.57
51496;BME280;37572;52.094;4.870;2023-06-10T01:49:13;101549.66;;;22.99;43.93
51496;BME280;37572;52.094;4.870;2023-06-10T01:51:39;101548.19;;;22.96;43.92
51496;BME280;37572;52.094;4.870;2023-06-10T01:54:04;101548.41;;;22.95;43.34
51496;BME280;37572;52.094;4.870;2023-06-10T01:56:30;101550.53;;;22.92;43.40
51496;BME280;37572;52.094;4.870;2023-06-10T01:58:55;101550.97;;;22.89;43.85
51496;BME280;37572;52.094;4.870;2023-06-10T02:01:25;101553.06;;;22.87;43.64
51496;BME280;37572;52.094;4.870;2023-06-10T02:03:50;101549.53;;;22.87;43.48
51496;BME280;37572;52.094;4.870;2023-06-10T02:06:15;101544.09;;;22.87;43.28
51496;BME280;37572;52.094;4.870;2023-06-10T02:08:41;101545.38;;;22.84;43.56
51496;BME280;37572;52.094;4.870;2023-06-10T02:11:06;101554.81;;;22.82;43.61
51496;BME280;37572;52.094;4.870;2023-06-10T02:13:32;101546.25;;;22.78;43.11
51496;BME280;37572;52.094;4.870;2023-06-10T02:15:57;101552.75;;;22.77;43.17
51496;BME280;37572;52.094;4.870;2023-06-10T02:18:23;101545.63;;;22.76;43.27
51496;BME280;37572;52.094;4.870;2023-06-10T02:20:49;101557.34;;;22.77;43.32
51496;BME280;37572;52.094;4.870;2023-06-10T02:23:14;101544.59;;;22.77;42.70
51496;BME280;37572;52.094;4.870;2023-06-10T02:25:40;101553.34;;;22.79;42.99
51496;BME280;37572;52.094;4.870;2023-06-10T02:28:05;101549.38;;;22.82;42.65
51496;BME280;37572;52.094;4.870;2023-06-10T02:30:30;101556.44;;;22.83;42.52
51496;BME280;37572;52.094;4.870;2023-06-10T02:32:56;101554.81;;;22.82;42.78
51496;BME280;37572;52.094;4.870;2023-06-10T02:35:22;101553.94;;;22.81;42.44
51496;BME280;37572;52.094;4.870;2023-06-10T02:37:49;101557.94;;;22.79;42.91
51496;BME280;37572;52.094;4.870;2023-06-10T02:40:15;101557.09;;;22.78;42.50
51496;BME280;37572;52.094;4.870;2023-06-10T02:42:41;101559.00;;;22.78;42.80
51496;BME280;37572;52.094;4.870;2023-06-10T02:45:07;101560.28;;;22.75;42.76
51496;BME280;37572;52.094;4.870;2023-06-10T02:47:32;101556.94;;;22.73;42.83
51496;BME280;37572;52.094;4.870;2023-06-10T02:49:58;101558.44;;;22.69;42.59
51496;BME280;37572;52.094;4.870;2023-06-10T02:52:23;101553.44;;;22.66;42.63
51496;BME280;37572;52.094;4.870;2023-06-10T02:54:50;101555.53;;;22.64;42.56
51496;BME280;37572;52.094;4.870;2023-06-10T02:57:15;101553.47;;;22.59;42.81
51496;BME280;37572;52.094;4.870;2023-06-10T02:59:40;101554.50;;;22.58;43.05
51496;BME280;37572;52.094;4.870;2023-06-10T03:02:06;101557.47;;;22.57;42.78
51496;BME280;37572;52.094;4.870;2023-06-10T03:04:31;101556.84;;;22.54;42.97
51496;BME280;37572;52.094;4.870;2023-06-10T03:06:56;101554.56;;;22.51;43.03
51496;BME280;37572;52.094;4.870;2023-06-10T03:09:22;101555.22;;;22.47;42.78
51496;BME280;37572;52.094;4.870;2023-06-10T03:11:47;101558.38;;;22.44;42.80
51496;BME280;37572;52.094;4.870;2023-06-10T03:14:12;101559.63;;;22.41;43.05
51496;BME280;37572;52.094;4.870;2023-06-10T03:16:38;101554.63;;;22.38;42.91
51496;BME280;37572;52.094;4.870;2023-06-10T03:19:08;101554.03;;;22.36;43.29
51496;BME280;37572;52.094;4.870;2023-06-10T03:21:34;101556.13;;;22.34;43.36
51496;BME280;37572;52.094;4.870;2023-06-10T03:23:59;101559.28;;;22.31;43.18
51496;BME280;37572;52.094;4.870;2023-06-10T03:26:26;101561.38;;;22.29;43.04
51496;BME280;37572;52.094;4.870;2023-06-10T03:28:52;101556.94;;;22.28;43.20
51496;BME280;37572;52.094;4.870;2023-06-10T03:31:17;101557.16;;;22.26;43.08
51496;BME280;37572;52.094;4.870;2023-06-10T03:33:43;101559.06;;;22.26;43.24
51496;BME280;37572;52.094;4.870;2023-06-10T03:36:08;101558.22;;;22.25;43.54
51496;BME280;37572;52.094;4.870;2023-06-10T03:38:34;101562.81;;;22.25;43.63
51496;BME280;37572;52.094;4.870;2023-06-10T03:41:00;101572.63;;;22.26;43.13
51496;BME280;37572;52.094;4.870;2023-06-10T03:43:26;101566.78;;;22.29;43.45
51496;BME280;37572;52.094;4.870;2023-06-10T03:45:52;101563.44;;;22.33;43.45
51496;BME280;37572;52.094;4.870;2023-06-10T03:48:18;101573.00;;;22.36;43.36
51496;BME280;37572;52.094;4.870;2023-06-10T03:50:43;101569.88;;;22.39;43.21
51496;BME280;37572;52.094;4.870;2023-06-10T03:53:08;101576.75;;;22.42;43.05
51496;BME280;37572;52.094;4.870;2023-06-10T03:55:34;101576.09;;;22.46;43.26
51496;BME280;37572;52.094;4.870;2023-06-10T03:57:59;101577.34;;;22.50;43.48
51496;BME280;37572;52.094;4.870;2023-06-10T04:00:25;101571.47;;;22.53;42.76
51496;BME280;37572;52.094;4.870;2023-06-10T04:02:50;101581.66;;;22.58;43.09
51496;BME280;37572;52.094;4.870;2023-06-10T04:05:18;101577.69;;;22.61;43.07
51496;BME280;37572;52.094;4.870;2023-06-10T04:07:44;101581.00;;;22.63;43.04
51496;BME280;37572;52.094;4.870;2023-06-10T04:10:11;101582.25;;;22.67;43.10
51496;BME280;37572;52.094;4.870;2023-06-10T04:12:37;101583.25;;;22.72;42.99
51496;BME280;37572;52.094;4.870;2023-06-10T04:15:03;101586.34;;;22.76;43.20
51496;BME280;37572;52.094;4.870;2023-06-10T04:17:29;101590.53;;;22.79;43.55
51496;BME280;37572;52.094;4.870;2023-06-10T04:19:54;101586.53;;;22.81;43.54
51496;BME280;37572;52.094;4.870;2023-06-10T04:22:20;101591.53;;;22.84;43.42
51496;BME280;37572;52.094;4.870;2023-06-10T04:24:46;101596.53;;;22.87;43.11
51496;BME280;37572;52.094;4.870;2023-06-10T04:27:11;101596.09;;;22.90;43.46
51496;BME280;37572;52.094;4.870;2023-06-10T04:29:36;101595.66;;;22.94;43.61
51496;BME280;37572;52.094;4.870;2023-06-10T04:32:02;101597.72;;;22.98;43.46
51496;BME280;37572;52.094;4.870;2023-06-10T04:34:28;101598.09;;;23.02;43.46
51496;BME280;37572;52.094;4.870;2023-06-10T04:36:53;101603.09;;;23.05;43.73
51496;BME280;37572;52.094;4.870;2023-06-10T04:39:19;101604.34;;;23.09;43.79
51496;BME280;37572;52.094;4.870;2023-06-10T04:41:45;101605.53;;;23.13;43.82
51496;BME280;37572;52.094;4.870;2023-06-10T04:44:11;101608.91;;;23.15;43.38
51496;BME280;37572;52.094;4.870;2023-06-10T04:46:36;101606.56;;;23.19;43.37
51496;BME280;37572;52.094;4.870;2023-06-10T04:49:02;101606.94;;;23.22;43.79
51496;BME280;37572;52.094;4.870;2023-06-10T04:51:27;101602.28;;;23.30;43.87
51496;BME280;37572;52.094;4.870;2023-06-10T04:53:53;101605.78;;;23.37;43.84
51496;BME280;37572;52.094;4.870;2023-06-10T04:56:18;101611.16;;;23.43;43.36
51496;BME280;37572;52.094;4.870;2023-06-10T04:58:44;101605.91;;;23.49;43.19
51496;BME280;37572;52.094;4.870;2023-06-10T05:01:09;101614.00;;;23.55;43.62
51496;BME280;37572;52.094;4.870;2023-06-10T05:03:35;101614.16;;;23.60;43.20
51496;BME280;37572;52.094;4.870;2023-06-10T05:06:00;101608.66;;;23.67;43.39
51496;BME280;37572;52.094;4.870;2023-06-10T05:08:25;101614.84;;;23.74;43.28
51496;BME280;37572;52.094;4.870;2023-06-10T05:10:50;101613.13;;;23.80;42.95
51496;BME280;37572;52.094;4.870;2023-06-10T05:13:16;101603.25;;;23.86;42.75
51496;BME280;37572;52.094;4.870;2023-06-10T05:15:42;101607.81;;;23.92;42.81
51496;BME280;37572;52.094;4.870;2023-06-10T05:18:10;101608.91;;;24.02;42.50
51496;BME280;37572;52.094;4.870;2023-06-10T05:20:35;101611.13;;;24.12;42.46
51496;BME280;37572;52.094;4.870;2023-06-10T05:23:00;101605.13;;;24.22;42.88
51496;BME280;37572;52.094;4.870;2023-06-10T05:25:28;101608.59;;;24.29;42.56
51496;BME280;37572;52.094;4.870;2023-06-10T05:27:55;101610.78;;;24.39;42.35
51496;BME280;37572;52.094;4.870;2023-06-10T05:30:20;101610.94;;;24.44;42.43
51496;BME280;37572;52.094;4.870;2023-06-10T05:32:46;101610.38;;;24.54;42.15
51496;BME280;37572;52.094;4.870;2023-06-10T05:35:11;101609.03;;;24.63;42.12
51496;BME280;37572;52.094;4.870;2023-06-10T05:37:37;101609.53;;;24.72;42.07
51496;BME280;37572;52.094;4.870;2023-06-10T05:40:02;101609.22;;;24.80;41.76
51496;BME280;37572;52.094;4.870;2023-06-10T05:42:29;101608.66;;;24.90;41.67
51496;BME280;37572;52.094;4.870;2023-06-10T05:44:54;101610.56;;;25.01;41.61
51496;BME280;37572;52.094;4.870;2023-06-10T05:47:20;101611.66;;;25.12;41.74
51496;BME280;37572;52.094;4.870;2023-06-10T05:49:45;101614.84;;;25.21;41.32
51496;BME280;37572;52.094;4.870;2023-06-10T05:52:13;101620.59;;;25.31;41.07
51496;BME280;37572;52.094;4.870;2023-06-10T05:54:38;101615.38;;;25.41;40.98
51496;BME280;37572;52.094;4.870;2023-06-10T05:57:04;101622.75;;;25.53;40.87
51496;BME280;37572;52.094;4.870;2023-06-10T05:59:30;101620.63;;;25.66;41.04
51496;BME280;37572;52.094;4.870;2023-06-10T06:01:56;101615.75;;;25.80;40.74
51496;BME280;37572;52.094;4.870;2023-06-10T06:04:21;101619.03;;;25.94;40.55
51496;BME280;37572;52.094;4.870;2023-06-10T06:06:46;101621.53;;;26.08;40.17
51496;BME280;37572;52.094;4.870;2023-06-10T06:09:12;101616.03;;;26.19;40.24
51496;BME280;37572;52.094;4.870;2023-06-10T06:11:37;101612.22;;;26.32;40.05
51496;BME280;37572;52.094;4.870;2023-06-10T06:14:03;101611.69;;;26.47;39.77
51496;BME280;37572;52.094;4.870;2023-06-10T06:16:28;101619.97;;;26.64;39.82
51496;BME280;37572;52.094;4.870;2023-06-10T06:18:53;101623.81;;;26.80;39.18
51496;BME280;37572;52.094;4.870;2023-06-10T06:21:19;101622.41;;;26.94;38.97
51496;BME280;37572;52.094;4.870;2023-06-10T06:23:44;101629.22;;;27.09;38.90
51496;BME280;37572;52.094;4.870;2023-06-10T06:26:09;101625.09;;;27.23;39.02
51496;BME280;37572;52.094;4.870;2023-06-10T06:28:35;101623.38;;;27.34;38.45
51496;BME280;37572;52.094;4.870;2023-06-10T06:31:00;101621.66;;;27.45;38.03
51496;BME280;37572;52.094;4.870;2023-06-10T06:33:25;101625.09;;;27.57;37.92
51496;BME280;37572;52.094;4.870;2023-06-10T06:35:51;101617.63;;;27.69;38.19
51496;BME280;37572;52.094;4.870;2023-06-10T06:38:17;101618.09;;;27.83;38.25
51496;BME280;37572;52.094;4.870;2023-06-10T06:40:42;101624.88;;;27.98;37.93
51496;BME280;37572;52.094;4.870;2023-06-10T06:43:09;101619.34;;;28.15;37.55
51496;BME280;37572;52.094;4.870;2023-06-10T06:45:34;101619.03;;;28.33;37.48
51496;BME280;37572;52.094;4.870;2023-06-10T06:47:59;101617.53;;;28.48;37.24
51496;BME280;37572;52.094;4.870;2023-06-10T06:50:25;101623.47;;;28.62;36.63
51496;BME280;37572;52.094;4.870;2023-06-10T06:52:50;101628.03;;;28.78;36.97
51496;BME280;37572;52.094;4.870;2023-06-10T06:55:15;101628.72;;;28.95;36.72
51496;BME280;37572;52.094;4.870;2023-06-10T06:57:40;101626.97;;;29.11;36.61
51496;BME280;37572;52.094;4.870;2023-06-10T07:00:06;101629.06;;;29.31;36.38
51496;BME280;37572;52.094;4.870;2023-06-10T07:02:34;101630.03;;;29.52;35.96
51496;BME280;37572;52.094;4.870;2023-06-10T07:04:59;101636.22;;;29.75;35.65
51496;BME280;37572;52.094;4.870;2023-06-10T07:07:25;101631.97;;;29.95;35.61
51496;BME280;37572;52.094;4.870;2023-06-10T07:09:52;101626.00;;;30.13;35.29
51496;BME280;37572;52.094;4.870;2023-06-10T07:12:17;101630.47;;;30.30;34.92
51496;BME280;37572;52.094;4.870;2023-06-10T07:14:43;101634.38;;;30.49;34.73
51496;BME280;37572;52.094;4.870;2023-06-10T07:17:09;101631.16;;;30.73;34.53
51496;BME280;37572;52.094;4.870;2023-06-10T07:19:34;101630.09;;;30.94;34.09
51496;BME280;37572;52.094;4.870;2023-06-10T07:22:00;101634.78;;;31.14;33.30
51496;BME280;37572;52.094;4.870;2023-06-10T07:24:25;101632.00;;;31.30;32.99
51496;BME280;37572;52.094;4.870;2023-06-10T07:26:50;101633.06;;;31.44;33.44
51496;BME280;37572;52.094;4.870;2023-06-10T07:29:16;101640.78;;;31.68;33.74
51496;BME280;37572;52.094;4.870;2023-06-10T07:31:41;101642.66;;;31.93;33.56
51496;BME280;37572;52.094;4.870;2023-06-10T07:34:07;101636.25;;;32.18;33.75
51496;BME280;37572;52.094;4.870;2023-06-10T07:36:32;101645.78;;;32.36;32.97
51496;BME280;37572;52.094;4.870;2023-06-10T07:38:58;101645.22;;;32.44;32.76
51496;BME280;37572;52.094;4.870;2023-06-10T07:41:24;101642.47;;;32.39;32.35
51496;BME280;37572;52.094;4.870;2023-06-10T07:43:53;101638.66;;;32.30;32.75
51496;BME280;37572;52.094;4.870;2023-06-10T07:46:23;101640.09;;;32.17;32.57
51496;BME280;37572;52.094;4.870;2023-06-10T07:48:48;101639.56;;;32.10;32.76
51496;BME280;37572;52.094;4.870;2023-06-10T07:51:15;101642.59;;;32.03;32.74
51496;BME280;37572;52.094;4.870;2023-06-10T07:53:41;101645.13;;;31.95;32.87
51496;BME280;37572;52.094;4.870;2023-06-10T07:56:06;101642.13;;;31.81;32.96
51496;BME280;37572;52.094;4.870;2023-06-10T07:58:31;101644.94;;;31.60;33.13
51496;BME280;37572;52.094;4.870;2023-06-10T08:00:57;101643.81;;;31.41;32.79
51496;BME280;37572;52.094;4.870;2023-06-10T08:03:22;101637.81;;;31.18;33.01
51496;BME280;37572;52.094;4.870;2023-06-10T08:05:47;101642.47;;;31.02;33.14
51496;BME280;37572;52.094;4.870;2023-06-10T08:08:13;101645.75;;;30.99;33.54
51496;BME280;37572;52.094;4.870;2023-06-10T08:10:38;101643.28;;;30.97;33.95
51496;BME280;37572;52.094;4.870;2023-06-10T08:13:04;101645.47;;;30.95;34.35
51496;BME280;37572;52.094;4.870;2023-06-10T08:15:29;101649.28;;;30.89;33.58
51496;BME280;37572;52.094;4.870;2023-06-10T08:17:54;101651.22;;;30.84;34.14
51496;BME280;37572;52.094;4.870;2023-06-10T08:20:21;101649.28;;;30.79;34.10
51496;BME280;37572;52.094;4.870;2023-06-10T08:22:46;101647.38;;;30.74;34.33
51496;BME280;37572;52.094;4.870;2023-06-10T08:25:12;101641.03;;;30.74;34.65
51496;BME280;37572;52.094;4.870;2023-06-10T08:27:37;101649.00;;;30.75;34.54
51496;BME280;37572;52.094;4.870;2023-06-10T08:30:03;101646.78;;;30.77;34.97
51496;BME280;37572;52.094;4.870;2023-06-10T08:32:29;101651.19;;;30.78;34.88
51496;BME280;37572;52.094;4.870;2023-06-10T08:34:55;101645.72;;;30.78;34.95
51496;BME280;37572;52.094;4.870;2023-06-10T08:37:20;101641.88;;;30.79;35.34
51496;BME280;37572;52.094;4.870;2023-06-10T08:39:46;101641.59;;;30.81;35.50
51496;BME280;37572;52.094;4.870;2023-06-10T08:42:28;101646.78;;;30.83;35.91
51496;BME280;37572;52.094;4.870;2023-06-10T08:44:55;101640.75;;;30.91;35.94
51496;BME280;37572;52.094;4.870;2023-06-10T08:47:22;101642.47;;;31.02;35.75
51496;BME280;37572;52.094;4.870;2023-06-10T08:49:48;101649.88;;;31.07;35.55
51496;BME280;37572;52.094;4.870;2023-06-10T08:52:16;101650.44;;;31.14;35.57
51496;BME280;37572;52.094;4.870;2023-06-10T08:55:00;101647.13;;;31.17;34.87
51496;BME280;37572;52.094;4.870;2023-06-10T08:57:29;101635.88;;;31.18;35.33
51496;BME280;37572;52.094;4.870;2023-06-10T08:59:57;101647.94;;;31.17;34.75
51496;BME280;37572;52.094;4.870;2023-06-10T09:02:26;101653.75;;;31.16;35.15
51496;BME280;37572;52.094;4.870;2023-06-10T09:04:53;101645.19;;;31.17;35.51
51496;BME280;37572;52.094;4.870;2023-06-10T09:07:19;101647.13;;;31.17;35.21
51496;BME280;37572;52.094;4.870;2023-06-10T09:09:44;101653.44;;;31.17;35.23
51496;BME280;37572;52.094;4.870;2023-06-10T09:12:11;101649.06;;;31.22;35.50
51496;BME280;37572;52.094;4.870;2023-06-10T09:14:37;101646.84;;;31.29;35.68
51496;BME280;37572;52.094;4.870;2023-06-10T09:17:03;101647.13;;;31.32;34.99
51496;BME280;37572;52.094;4.870;2023-06-10T09:19:29;101646.31;;;31.32;34.77
51496;BME280;37572;52.094;4.870;2023-06-10T09:21:55;101647.41;;;31.31;34.51
51496;BME280;37572;52.094;4.870;2023-06-10T09:24:25;101654.28;;;31.28;34.47
51496;BME280;37572;52.094;4.870;2023-06-10T09:27:02;101651.53;;;31.28;34.80
51496;BME280;37572;52.094;4.870;2023-06-10T09:29:27;101652.63;;;31.27;34.58
51496;BME280;37572;52.094;4.870;2023-06-10T09:31:53;101642.75;;;31.31;34.56
51496;BME280;37572;52.094;4.870;2023-06-10T09:34:18;101649.34;;;31.30;34.09
51496;BME280;37572;52.094;4.870;2023-06-10T09:36:43;101641.63;;;31.32;34.50
51496;BME280;37572;52.094;4.870;2023-06-10T09:39:16;101646.03;;;31.39;34.62
51496;BME280;37572;52.094;4.870;2023-06-10T09:41:43;101648.50;;;31.45;34.61
51496;BME280;37572;52.094;4.870;2023-06-10T09:44:15;101654.56;;;31.52;33.91
51496;BME280;37572;52.094;4.870;2023-06-10T09:46:40;101649.63;;;31.54;33.87
51496;BME280;37572;52.094;4.870;2023-06-10T09:49:06;101655.13;;;31.60;34.02
51496;BME280;37572;52.094;4.870;2023-06-10T09:51:32;101647.94;;;31.64;33.81
51496;BME280;37572;52.094;4.870;2023-06-10T09:53:58;101652.06;;;31.66;33.74
51496;BME280;37572;52.094;4.870;2023-06-10T09:56:36;101649.31;;;31.71;33.58
51496;BME280;37572;52.094;4.870;2023-06-10T09:59:03;101649.56;;;31.80;33.70
51496;BME280;37572;52.094;4.870;2023-06-10T10:01:31;101650.06;;;31.92;33.84
51496;BME280;37572;52.094;4.870;2023-06-10T10:03:57;101654.72;;;32.02;33.75
51496;BME280;37572;52.094;4.870;2023-06-10T10:06:23;101646.75;;;32.11;33.76
51496;BME280;37572;52.094;4.870;2023-06-10T10:08:49;101647.78;;;32.20;33.37
51496;BME280;37572;52.094;4.870;2023-06-10T10:11:17;101641.16;;;32.26;32.98
51496;BME280;37572;52.094;4.870;2023-06-10T10:13:45;101642.78;;;32.33;33.25
51496;BME280;37572;52.094;4.870;2023-06-10T10:16:15;101635.31;;;32.38;33.14
51496;BME280;37572;52.094;4.870;2023-06-10T10:18:43;101639.41;;;32.46;32.98
51496;BME280;37572;52.094;4.870;2023-06-10T10:21:13;101637.44;;;32.52;32.52
51496;BME280;37572;52.094;4.870;2023-06-10T10:23:51;101634.66;;;32.57;32.76
51496;BME280;37572;52.094;4.870;2023-06-10T10:26:18;101636.31;;;32.63;32.65
51496;BME280;37572;52.094;4.870;2023-06-10T10:28:52;101634.03;;;32.70;32.98
51496;BME280;37572;52.094;4.870;2023-06-10T10:31:21;101629.84;;;32.78;32.32
51496;BME280;37572;52.094;4.870;2023-06-10T10:33:55;101634.22;;;32.84;32.72
51496;BME280;37572;52.094;4.870;2023-06-10T10:36:22;101628.97;;;32.88;32.67
51496;BME280;37572;52.094;4.870;2023-06-10T10:38:48;101626.22;;;32.88;31.83
51496;BME280;37572;52.094;4.870;2023-06-10T10:41:18;101620.41;;;32.89;31.57
51496;BME280;37572;52.094;4.870;2023-06-10T10:43:44;101619.00;;;32.92;31.40
51496;BME280;37572;52.094;4.870;2023-06-10T10:46:16;101613.16;;;32.98;31.60
51496;BME280;37572;52.094;4.870;2023-06-10T10:48:41;101620.28;;;33.05;31.98
51496;BME280;37572;52.094;4.870;2023-06-10T10:51:08;101627.13;;;33.07;30.96
51496;BME280;37572;52.094;4.870;2023-06-10T10:53:34;101620.50;;;33.08;31.61
51496;BME280;37572;52.094;4.870;2023-06-10T10:56:16;101624.94;;;33.09;31.28
51496;BME280;37572;52.094;4.870;2023-06-10T10:59:04;101614.44;;;33.11;31.03
51496;BME280;37572;52.094;4.870;2023-06-10T11:01:43;101621.25;;;33.19;30.74
51496;BME280;37572;52.094;4.870;2023-06-10T11:04:11;101618.78;;;33.23;30.61
51496;BME280;37572;52.094;4.870;2023-06-10T11:06:37;101617.13;;;33.22;30.38
51496;BME280;37572;52.094;4.870;2023-06-10T11:09:25;101604.72;;;33.19;30.85
51496;BME280;37572;52.094;4.870;2023-06-10T11:11:52;101616.59;;;33.19;30.84
51496;BME280;37572;52.094;4.870;2023-06-10T11:14:27;101611.88;;;33.20;29.88
51496;BME280;37572;52.094;4.870;2023-06-10T11:16:57;101606.59;;;33.24;30.26
51496;BME280;37572;52.094;4.870;2023-06-10T11:19:36;101604.31;;;33.31;30.03
51496;BME280;37572;52.094;4.870;2023-06-10T11:22:05;101594.59;;;33.38;29.99
51496;BME280;37572;52.094;4.870;2023-06-10T11:24:31;101597.00;;;33.45;30.20
51496;BME280;37572;52.094;4.870;2023-06-10T11:27:19;101599.13;;;33.53;30.37
51496;BME280;37572;52.094;4.870;2023-06-10T11:32:34;101595.97;;;33.65;28.68
51496;BME280;37572;52.094;4.870;2023-06-10T11:35:02;101600.34;;;33.71;28.87
51496;BME280;37572;52.094;4.870;2023-06-10T11:37:28;101579.06;;;33.72;28.69
51496;BME280;37572;52.094;4.870;2023-06-10T11:39:54;101589.00;;;33.73;28.71
51496;BME280;37572;52.094;4.870;2023-06-10T11:42:21;101586.19;;;33.78;27.58
51496;BME280;37572;52.094;4.870;2023-06-10T11:44:51;101585.53;;;33.86;27.68
51496;BME280;37572;52.094;4.870;2023-06-10T11:47:17;101580.69;;;33.97;27.70
51496;BME280;37572;52.094;4.870;2023-06-10T11:49:43;101575.78;;;34.13;26.80
51496;BME280;37572;52.094;4.870;2023-06-10T11:52:09;101568.38;;;34.33;26.42
51496;BME280;37572;52.094;4.870;2023-06-10T11:54:34;101566.00;;;34.59;26.53
51496;BME280;37572;52.094;4.870;2023-06-10T11:57:00;101573.84;;;34.90;25.79
51496;BME280;37572;52.094;4.870;2023-06-10T11:59:29;101579.06;;;35.24;25.89
51496;BME280;37572;52.094;4.870;2023-06-10T12:01:55;101576.63;;;35.64;25.36
51496;BME280;37572;52.094;4.870;2023-06-10T12:04:20;101572.38;;;36.08;25.41
51496;BME280;37572;52.094;4.870;2023-06-10T12:06:48;101571.97;;;36.52;24.64
51496;BME280;37572;52.094;4.870;2023-06-10T12:09:20;101566.06;;;36.90;24.78
51496;BME280;37572;52.094;4.870;2023-06-10T12:11:50;101569.38;;;37.23;23.44
51496;BME280;37572;52.094;4.870;2023-06-10T12:14:15;101564.72;;;37.50;23.25
51496;BME280;37572;52.094;4.870;2023-06-10T12:16:48;101563.50;;;37.73;22.77
51496;BME280;37572;52.094;4.870;2023-06-10T12:19:13;101560.78;;;37.91;22.74
51496;BME280;37572;52.094;4.870;2023-06-10T12:21:39;101565.84;;;37.98;22.07
51496;BME280;37572;52.094;4.870;2023-06-10T12:24:09;101561.44;;;37.97;22.28
51496;BME280;37572;52.094;4.870;2023-06-10T12:29:24;101554.06;;;37.83;22.30
51496;BME280;37572;52.094;4.870;2023-06-10T12:32:03;101558.13;;;37.77;22.56
51496;BME280;37572;52.094;4.870;2023-06-10T12:34:38;101558.59;;;37.70;22.64
51496;BME280;37572;52.094;4.870;2023-06-10T12:37:05;101562.66;;;37.64;22.29
51496;BME280;37572;52.094;4.870;2023-06-10T12:39:34;101556.41;;;37.50;22.46
51496;BME280;37572;52.094;4.870;2023-06-10T12:42:00;101552.41;;;37.33;22.81
51496;BME280;37572;52.094;4.870;2023-06-10T12:44:33;101567.88;;;37.26;22.74
51496;BME280;37572;52.094;4.870;2023-06-10T12:47:00;101554.38;;;37.33;22.82
51496;BME280;37572;52.094;4.870;2023-06-10T12:49:26;101547.59;;;37.48;22.69
51496;BME280;37572;52.094;4.870;2023-06-10T12:51:51;101550.25;;;37.70;22.75
51496;BME280;37572;52.094;4.870;2023-06-10T12:54:17;101552.63;;;37.94;22.73
51496;BME280;37572;52.094;4.870;2023-06-10T12:56:42;101555.38;;;38.12;22.07